Time;durP1;ratioP1;P1;durP2;ratioP2;P2;SDS_P1;SDS_P2;PMS_P1;PMS_P2;Temp;Humidity;BMP_temperature;BMP_pressure;BME280_temperature;BME280_humidity;BME280_pressure;Samples;Min_cycle;Max_cycle;Signal;HPM_P1;HPM_P2
2022/07/16 00:01:26;;;;;;;;;;;23.50;63.90;23.40;99751.00;;;;334783;29;93029;-91
2022/07/16 00:01:38;;;;;;;;;;;23.50;63.80;23.40;99744.00;;;;339593;28;97052;-91
2022/07/16 00:01:50;;;;;;;;;;;23.40;63.60;23.40;99742.00;;;;341360;28;91275;-91
2022/07/16 00:02:02;;;;;;;;;;;23.40;63.60;23.40;99735.00;;;;340383;28;95808;-91
2022/07/16 00:02:13;;;;;;;;;;;23.40;63.70;23.30;99740.00;;;;338363;28;91425;-90
2022/07/16 00:02:26;;;;;;;;;;;23.40;63.50;23.40;99745.00;;;;340460;28;95046;-91
2022/07/16 00:02:38;;;;;;;;;;;23.40;63.60;23.40;99743.00;;;;336132;28;92031;-90
2022/07/16 00:02:50;;;;;;;;;;;23.40;63.80;23.40;99746.00;;;;339171;28;96005;-91
2022/07/16 00:03:01;;;;;;;;;;;23.40;63.80;23.40;99739.00;;;;338884;28;91992;-90
2022/07/16 00:03:13;;;;;;;;;;;23.40;63.70;23.40;99736.00;;;;336383;28;95802;-91
2022/07/16 00:03:25;;;;;;;;;;;23.40;63.60;23.40;99750.00;;;;337555;28;92829;-91
2022/07/16 00:03:37;;;;;;;;;;;23.40;63.60;23.40;99750.00;;;;337688;28;94782;-92
2022/07/16 00:03:56;;;;;;;;;;;23.40;63.60;23.40;99745.00;;;;340042;28;92702;-91
2022/07/16 00:04:08;;;;;;;;;;;23.40;63.90;23.40;99743.00;;;;339021;28;94730;-91
2022/07/16 00:04:20;;;;;;;;;;;23.40;63.70;23.30;99741.00;;;;337459;28;91306;-91
2022/07/16 00:04:32;;;;;;;;;;;23.40;63.70;23.30;99750.00;;;;340338;28;94799;-91
2022/07/16 00:04:44;;;;;;;;;;;23.40;63.60;23.40;99739.00;;;;337304;28;92051;-90
2022/07/16 00:04:56;;;;;;;;;;;23.40;63.60;23.30;99742.00;;;;340590;28;96180;-91
2022/07/16 00:05:08;;;;;;;;;;;23.40;63.70;23.30;99739.00;;;;338644;28;92137;-91
2022/07/16 00:05:20;;;;;;;;;;;23.40;63.60;23.40;99747.00;;;;336485;28;95817;-90
2022/07/16 00:05:32;;;;;;;;;;;23.40;63.70;23.30;99746.00;;;;338647;28;92255;-90
2022/07/16 00:05:45;;;;;;;;;;;23.40;63.60;23.40;99746.00;;;;340474;28;95801;-91
2022/07/16 00:05:56;;;;;;;;;;;23.40;63.70;23.40;99735.00;;;;337617;28;92132;-90
2022/07/16 00:06:08;;;;;;;;;;;23.40;63.80;23.40;99739.00;;;;337848;28;96390;-90
2022/07/16 00:06:20;;;;;;;;;;;23.40;63.70;23.40;99745.00;;;;339301;28;93912;-91
2022/07/16 00:06:32;;;;;;;;;;;23.40;63.70;23.40;99746.00;;;;339060;28;95543;-91
2022/07/16 00:06:44;;;;;;;;;;;23.40;63.80;23.40;99742.00;;;;338242;28;94118;-91
2022/07/16 00:06:56;;;;;;;;;;;23.40;63.80;23.40;99743.00;;;;336952;28;96066;-90
2022/07/16 00:07:08;;;;;;;;;;;23.40;63.80;23.30;99742.00;;;;340073;28;91227;-91
2022/07/16 00:07:20;;;;;;;;;;;23.40;63.70;23.40;99750.00;;;;338944;28;94883;-90
2022/07/16 00:07:32;;;;;;;;;;;23.40;63.60;23.40;99742.00;;;;338166;28;93290;-90
2022/07/16 00:07:43;;;;;;;;;;;23.40;63.60;23.40;99737.00;;;;339091;28;95879;-90
2022/07/16 00:07:56;;;;;;;;;;;23.40;63.60;23.30;99742.00;;;;335948;28;92155;-91
2022/07/16 00:08:08;;;;;;;;;;;23.40;63.60;23.30;99742.00;;;;338810;28;96091;-91
2022/07/16 00:08:19;;;;;;;;;;;23.40;63.50;23.30;99749.00;;;;338795;28;91941;-90
2022/07/16 00:08:31;;;;;;;;;;;23.40;63.60;23.30;99746.00;;;;337736;28;95944;-91
2022/07/16 00:08:43;;;;;;;;;;;23.40;63.70;23.30;99745.00;;;;338835;28;91924;-91
2022/07/16 00:08:55;;;;;;;;;;;23.30;63.60;23.40;99745.00;;;;339069;28;95621;-91
2022/07/16 00:09:07;;;;;;;;;;;23.30;63.70;23.40;99736.00;;;;338351;28;91997;-91
2022/07/16 00:09:19;;;;;;;;;;;23.40;63.80;23.40;99747.00;;;;339096;28;94771;-90
2022/07/16 00:09:30;;;;;;;;;;;23.40;63.80;23.30;99746.00;;;;338793;28;92950;-92
2022/07/16 00:09:42;;;;;;;;;;;23.30;63.50;23.30;99749.00;;;;340465;28;93423;-91
2022/07/16 00:09:54;;;;;;;;;;;23.30;63.50;23.30;99747.00;;;;339657;28;91966;-91
2022/07/16 00:10:06;;;;;;;;;;;23.30;63.40;23.30;99744.00;;;;340600;28;94538;-91
2022/07/16 00:10:18;;;;;;;;;;;23.30;63.50;23.30;99744.00;;;;337611;28;92038;-91
2022/07/16 00:10:30;;;;;;;;;;;23.30;63.50;23.30;99749.00;;;;338999;28;94493;-90
2022/07/16 00:10:42;;;;;;;;;;;23.30;63.60;23.30;99745.00;;;;339538;28;92251;-91
2022/07/16 00:10:54;;;;;;;;;;;23.30;63.50;23.30;99744.00;;;;340102;28;94932;-91
2022/07/16 00:11:05;;;;;;;;;;;23.30;63.50;23.30;99748.00;;;;339615;28;91252;-90
2022/07/16 00:11:17;;;;;;;;;;;23.30;63.40;23.30;99751.00;;;;336360;28;94930;-91
2022/07/16 00:11:29;;;;;;;;;;;23.30;63.40;23.30;99751.00;;;;337522;28;93002;-91
2022/07/16 00:11:41;;;;;;;;;;;23.30;63.50;23.30;99748.00;;;;337765;28;95504;-91
2022/07/16 00:11:53;;;;;;;;;;;23.30;63.50;23.30;99748.00;;;;339673;28;92129;-91
2022/07/16 00:12:04;;;;;;;;;;;23.30;63.50;23.20;99751.00;;;;337613;28;95205;-92
2022/07/16 00:12:17;;;;;;;;;;;23.30;63.40;23.20;99747.00;;;;338612;28;91224;-91
2022/07/16 00:12:28;;;;;;;;;;;23.30;63.30;23.30;99743.00;;;;339135;28;95879;-90
2022/07/16 00:12:40;;;;;;;;;;;23.30;63.40;23.30;99752.00;;;;338669;28;92051;-90
2022/07/16 00:12:52;;;;;;;;;;;23.30;63.30;23.20;99747.00;;;;339933;28;95043;-91
2022/07/16 00:13:04;;;;;;;;;;;23.30;63.20;23.20;99742.00;;;;339060;28;91972;-90
2022/07/16 00:13:16;;;;;;;;;;;23.30;63.30;23.20;99747.00;;;;338906;28;94807;-90
2022/07/16 00:13:28;;;;;;;;;;;23.20;63.40;23.20;99745.00;;;;340721;28;93625;-90
2022/07/16 00:13:40;;;;;;;;;;;23.30;63.30;23.10;99748.00;;;;337627;28;95806;-90
2022/07/16 00:13:52;;;;;;;;;;;23.20;63.10;23.10;99745.00;;;;337434;28;91124;-91
2022/07/16 00:14:04;;;;;;;;;;;23.20;63.10;23.20;99749.00;;;;337678;28;96061;-90
2022/07/16 00:14:16;;;;;;;;;;;23.20;63.40;23.10;99743.00;;;;340267;28;91141;-90
2022/07/16 00:14:27;;;;;;;;;;;23.20;63.30;23.20;99740.00;;;;338983;28;96321;-91
2022/07/16 00:14:40;;;;;;;;;;;23.20;63.30;23.20;99749.00;;;;337514;28;92003;-91
2022/07/16 00:14:51;;;;;;;;;;;23.20;63.40;23.20;99747.00;;;;341744;28;95866;-91
2022/07/16 00:15:04;;;;;;;;;;;23.20;63.30;23.20;99742.00;;;;337581;28;91930;-90
2022/07/16 00:15:16;;;;;;;;;;;23.20;63.30;23.20;99744.00;;;;337485;28;94917;-92
2022/07/16 00:15:34;;;;;;;;;;;23.20;63.30;23.10;99742.00;;;;337440;28;92923;-90
2022/07/16 00:15:46;;;;;;;;;;;23.20;62.80;23.10;99743.00;;;;339053;28;95831;-90
2022/07/16 00:15:58;;;;;;;;;;;23.20;63.00;23.10;99740.00;;;;339737;28;91243;-91
2022/07/16 00:16:10;;;;;;;;;;;23.20;63.00;23.20;99742.00;;;;337667;28;94831;-91
2022/07/16 00:16:22;;;;;;;;;;;23.20;63.20;23.20;99738.00;;;;337386;28;92026;-91
2022/07/16 00:16:34;;;;;;;;;;;23.20;63.20;23.20;99739.00;;;;336398;28;94658;-88
2022/07/16 00:16:46;;;;;;;;;;;23.20;63.30;23.10;99740.00;;;;337221;28;92117;-91
2022/07/16 00:16:58;;;;;;;;;;;23.20;63.10;23.20;99744.00;;;;338440;28;96000;-91
2022/07/16 00:17:09;;;;;;;;;;;23.10;63.10;23.20;99739.00;;;;338070;28;92290;-91
2022/07/16 00:17:21;;;;;;;;;;;23.20;63.20;23.20;99730.00;;;;337080;28;94495;-90
2022/07/16 00:17:33;;;;;;;;;;;23.20;63.10;23.20;99744.00;;;;336143;28;92620;-91
2022/07/16 00:17:45;;;;;;;;;;;23.20;63.10;23.20;99751.00;;;;337256;28;96578;-90
2022/07/16 00:19:16;;;;;;;;;;;23.20;63.40;23.20;99748.00;;;;341344;28;92199;-90
2022/07/16 00:19:28;;;;;;;;;;;23.20;63.30;23.20;99757.00;;;;339172;28;94786;-91
2022/07/16 00:19:40;;;;;;;;;;;23.20;63.30;23.20;99751.00;;;;336161;28;92081;-91
2022/07/16 00:19:51;;;;;;;;;;;23.20;63.50;23.20;99746.00;;;;338210;28;95835;-91
2022/07/16 00:20:04;;;;;;;;;;;23.20;63.50;23.20;99748.00;;;;340907;28;92112;-90
2022/07/16 00:20:16;;;;;;;;;;;23.20;63.30;23.20;99747.00;;;;341756;28;95021;-91
2022/07/16 00:20:27;;;;;;;;;;;23.20;63.30;23.20;99743.00;;;;340040;28;93074;-90
2022/07/16 00:20:39;;;;;;;;;;;23.20;63.20;23.20;99750.00;;;;340022;28;95684;-90
2022/07/16 00:20:51;;;;;;;;;;;23.20;63.10;23.10;99743.00;;;;340229;28;91915;-91
2022/07/16 00:21:03;;;;;;;;;;;23.20;63.00;23.10;99745.00;;;;341880;28;94607;-90
2022/07/16 00:21:15;;;;;;;;;;;23.20;63.10;23.20;99747.00;;;;340080;28;91928;-91
2022/07/16 00:21:27;;;;;;;;;;;23.20;63.10;23.10;99738.00;;;;340277;28;95282;-90
2022/07/16 00:21:38;;;;;;;;;;;23.20;63.30;23.10;99739.00;;;;338929;28;91846;-91
2022/07/16 00:21:52;;;;;;;;;;;23.20;63.20;23.10;99748.00;;;;339506;28;94623;-90
2022/07/16 00:22:04;;;;;;;;;;;23.10;63.00;23.20;99743.00;;;;338814;28;91906;-90
2022/07/16 00:22:16;;;;;;;;;;;23.10;62.90;23.10;99741.00;;;;340221;28;93794;-90
2022/07/16 00:22:28;;;;;;;;;;;23.20;63.10;23.10;99749.00;;;;338588;28;93002;-90
2022/07/16 00:22:40;;;;;;;;;;;23.10;62.90;23.00;99746.00;;;;340088;28;96702;-89
2022/07/16 00:22:51;;;;;;;;;;;23.10;62.80;23.00;99739.00;;;;336257;28;91196;-90
2022/07/16 00:23:04;;;;;;;;;;;23.10;62.80;23.00;99747.00;;;;340502;28;96161;-91
2022/07/16 00:23:17;;;;;;;;;;;23.10;62.90;23.10;99744.00;;;;338661;28;92599;-90
2022/07/16 00:23:28;;;;;;;;;;;23.10;62.90;23.00;99752.00;;;;338931;28;94124;-91
2022/07/16 00:23:40;;;;;;;;;;;23.10;63.50;23.00;99747.00;;;;341610;28;91927;-91
2022/07/16 00:23:52;;;;;;;;;;;23.10;62.90;23.10;99752.00;;;;340334;28;95819;-90
2022/07/16 00:24:07;;;;;;;;;;;23.10;63.10;23.10;99748.00;;;;340243;28;92040;-90
2022/07/16 00:24:18;;;;;;;;;;;23.10;63.20;23.10;99749.00;;;;337927;28;94613;-91
2022/07/16 00:24:30;;;;;;;;;;;23.00;63.30;23.10;99744.00;;;;338548;28;93080;-91
2022/07/16 00:24:42;;;;;;;;;;;23.10;63.30;23.10;99745.00;;;;339101;28;96969;-91
2022/07/16 00:24:54;;;;;;;;;;;23.10;63.30;23.10;99747.00;;;;338724;28;91924;-91
2022/07/16 00:25:06;;;;;;;;;;;23.10;63.40;23.10;99743.00;;;;337309;28;94947;-91
2022/07/16 00:25:18;;;;;;;;;;;23.10;63.30;23.10;99744.00;;;;338922;28;92001;-90
2022/07/16 00:25:30;;;;;;;;;;;23.10;63.30;23.10;99740.00;;;;338922;28;94781;-90
2022/07/16 00:25:42;;;;;;;;;;;23.10;63.10;23.00;99737.00;;;;336205;28;91239;-90
2022/07/16 00:25:54;;;;;;;;;;;23.10;63.00;23.10;99743.00;;;;339027;28;95175;-90
2022/07/16 00:26:06;;;;;;;;;;;23.00;63.00;23.10;99749.00;;;;341529;28;92067;-90
2022/07/16 00:26:18;;;;;;;;;;;23.00;62.90;23.10;99743.00;;;;340437;28;95985;-90
2022/07/16 00:26:31;;;;;;;;;;;23.10;63.00;23.10;99740.00;;;;338720;28;93073;-91
2022/07/16 00:26:43;;;;;;;;;;;23.10;63.00;23.10;99738.00;;;;340390;28;95574;-91
2022/07/16 00:26:55;;;;;;;;;;;23.10;63.10;23.10;99744.00;;;;338316;28;92170;-90
2022/07/16 00:27:06;;;;;;;;;;;23.00;63.00;23.00;99751.00;;;;338974;28;95997;-90
2022/07/16 00:27:18;;;;;;;;;;;23.00;63.10;23.00;99755.00;;;;338540;28;92181;-91
2022/07/16 00:27:30;;;;;;;;;;;23.00;63.00;23.10;99746.00;;;;339160;28;94264;-91
2022/07/16 00:27:43;;;;;;;;;;;23.10;63.00;23.00;99751.00;;;;337477;28;91269;-90
2022/07/16 00:27:55;;;;;;;;;;;23.10;62.90;23.00;99743.00;;;;338037;28;93757;-90
2022/07/16 00:28:07;;;;;;;;;;;23.00;62.50;23.00;99747.00;;;;341014;28;91180;-90
2022/07/16 00:28:19;;;;;;;;;;;23.00;62.50;23.10;99750.00;;;;340389;28;96121;-91
2022/07/16 00:28:31;;;;;;;;;;;23.00;62.70;23.00;99752.00;;;;340033;28;93038;-90
2022/07/16 00:28:43;;;;;;;;;;;23.00;62.50;23.00;99739.00;;;;339047;28;95737;-90
2022/07/16 00:28:55;;;;;;;;;;;23.10;62.60;23.00;99740.00;;;;338908;28;92041;-90
2022/07/16 00:29:07;;;;;;;;;;;23.00;62.50;23.00;99743.00;;;;340516;28;95549;-90
2022/07/16 00:29:19;;;;;;;;;;;23.00;62.50;23.00;99745.00;;;;341567;28;91997;-90
2022/07/16 00:29:31;;;;;;;;;;;23.00;62.50;23.00;99747.00;;;;339040;28;95839;-90
2022/07/16 00:29:43;;;;;;;;;;;23.00;62.70;23.00;99756.00;;;;336232;28;92065;-90
2022/07/16 00:29:54;;;;;;;;;;;23.00;62.70;23.00;99748.00;;;;339008;28;94982;-90
2022/07/16 00:30:07;;;;;;;;;;;23.10;62.60;23.00;99757.00;;;;340241;28;91954;-90
2022/07/16 00:30:18;;;;;;;;;;;23.00;62.50;23.00;99758.00;;;;337773;28;95774;-90
2022/07/16 00:30:30;;;;;;;;;;;23.00;62.40;23.00;99752.00;;;;337188;28;94252;-90
2022/07/16 00:30:42;;;;;;;;;;;23.00;62.60;23.00;99751.00;;;;339070;28;95930;-90
2022/07/16 00:30:56;;;;;;;;;;;23.00;62.50;23.00;99751.00;;;;339562;28;92209;-90
2022/07/16 00:31:08;;;;;;;;;;;23.00;62.70;23.00;99744.00;;;;338966;28;95535;-90
2022/07/16 00:31:20;;;;;;;;;;;23.00;62.50;22.90;99740.00;;;;341135;28;92082;-90
2022/07/16 00:31:32;;;;;;;;;;;23.00;62.40;22.90;99752.00;;;;340468;28;92294;-90
2022/07/16 00:31:44;;;;;;;;;;;23.00;62.40;22.90;99747.00;;;;340153;28;91227;-90
2022/07/16 00:31:56;;;;;;;;;;;23.00;62.70;22.90;99742.00;;;;344556;28;94639;-90
2022/07/16 00:32:07;;;;;;;;;;;23.00;63.40;22.90;99747.00;;;;339185;28;92114;-91
2022/07/16 00:32:19;;;;;;;;;;;23.00;62.60;22.90;99747.00;;;;337751;28;95794;-90
2022/07/16 00:32:31;;;;;;;;;;;23.00;62.50;23.00;99752.00;;;;338398;28;92225;-90
2022/07/16 00:32:43;;;;;;;;;;;23.00;62.50;23.00;99753.00;;;;339091;28;95943;-91
2022/07/16 00:32:55;;;;;;;;;;;23.00;62.60;23.00;99747.00;;;;336254;28;91194;-90
2022/07/16 00:33:07;;;;;;;;;;;23.00;62.50;23.00;99756.00;;;;339020;28;95993;-90
2022/07/16 00:33:19;;;;;;;;;;;23.00;62.50;23.00;99746.00;;;;337608;28;91956;-90
2022/07/16 00:33:31;;;;;;;;;;;23.00;62.50;23.00;99754.00;;;;336408;28;95720;-90
2022/07/16 00:33:43;;;;;;;;;;;23.00;62.60;23.00;99754.00;;;;340236;28;92009;-91
2022/07/16 00:33:55;;;;;;;;;;;23.00;62.50;22.90;99755.00;;;;338520;28;95644;-90
2022/07/16 00:34:07;;;;;;;;;;;23.00;62.30;22.90;99748.00;;;;340038;28;92300;-90
2022/07/16 00:34:19;;;;;;;;;;;22.90;63.00;23.00;99745.00;;;;337653;28;95658;-88
2022/07/16 00:34:30;;;;;;;;;;;22.90;62.20;23.00;99755.00;;;;337337;28;93150;-90
2022/07/16 00:34:42;;;;;;;;;;;22.90;62.20;23.00;99739.00;;;;341110;28;96915;-89
2022/07/16 00:34:54;;;;;;;;;;;22.90;62.20;23.00;99746.00;;;;335008;29;92033;-91
2022/07/16 00:35:06;;;;;;;;;;;23.00;62.40;22.90;99740.00;;;;337760;28;94575;-91
2022/07/16 00:35:18;;;;;;;;;;;22.90;62.10;23.00;99747.00;;;;340041;28;92152;-90
2022/07/16 00:35:30;;;;;;;;;;;23.00;62.20;23.00;99749.00;;;;335128;29;95919;-91
2022/07/16 00:35:42;;;;;;;;;;;22.90;62.20;23.00;99748.00;;;;340169;28;91991;-90
2022/07/16 00:35:53;;;;;;;;;;;23.00;62.40;23.00;99748.00;;;;339073;28;94501;-90
2022/07/16 00:36:05;;;;;;;;;;;22.90;62.30;23.00;99745.00;;;;340219;28;92011;-90
2022/07/16 00:36:17;;;;;;;;;;;23.00;62.20;22.90;99743.00;;;;336462;28;94798;-90
2022/07/16 00:36:29;;;;;;;;;;;22.90;62.10;22.80;99746.00;;;;337515;28;92256;-90
2022/07/16 00:36:41;;;;;;;;;;;22.90;62.00;22.80;99744.00;;;;337741;28;96607;-90
2022/07/16 00:36:53;;;;;;;;;;;22.90;61.90;22.90;99739.00;;;;337847;28;92096;-90
2022/07/16 00:37:05;;;;;;;;;;;22.90;62.30;22.90;99749.00;;;;335501;28;94814;-90
2022/07/16 00:37:17;;;;;;;;;;;22.90;62.40;22.90;99751.00;;;;338321;28;92217;-90
2022/07/16 00:37:28;;;;;;;;;;;22.90;62.20;22.80;99743.00;;;;337775;28;95523;-90
2022/07/16 00:37:40;;;;;;;;;;;22.90;62.10;22.90;99753.00;;;;336197;28;92074;-90
2022/07/16 00:37:52;;;;;;;;;;;22.90;62.40;22.90;99750.00;;;;339057;28;94645;-90
2022/07/16 00:38:04;;;;;;;;;;;22.90;62.10;22.90;99747.00;;;;341187;28;91212;-91
2022/07/16 00:38:16;;;;;;;;;;;22.90;62.10;22.90;99744.00;;;;336816;28;94643;-90
2022/07/16 00:38:28;;;;;;;;;;;22.90;62.10;22.90;99749.00;;;;338585;28;93089;-91
2022/07/16 00:38:39;;;;;;;;;;;22.90;62.50;22.90;99749.00;;;;340362;28;95532;-91
2022/07/16 00:38:51;;;;;;;;;;;22.90;62.30;22.90;99747.00;;;;340029;28;92136;-91
2022/07/16 00:39:04;;;;;;;;;;;22.90;62.30;22.80;99748.00;;;;337760;28;95536;-91
2022/07/16 00:39:16;;;;;;;;;;;22.90;62.10;22.80;99746.00;;;;341260;28;92095;-90
2022/07/16 00:39:28;;;;;;;;;;;22.90;62.00;22.80;99747.00;;;;340596;28;92758;-90
2022/07/16 00:39:40;;;;;;;;;;;22.90;62.10;22.80;99742.00;;;;340274;28;91037;-90
2022/07/16 00:39:51;;;;;;;;;;;22.90;62.00;22.80;99743.00;;;;339268;28;94407;-90
2022/07/16 00:40:04;;;;;;;;;;;22.90;61.90;22.80;99750.00;;;;338706;28;92196;-90
2022/07/16 00:40:16;;;;;;;;;;;22.90;61.90;22.80;99750.00;;;;340300;28;95700;-90
2022/07/16 00:40:27;;;;;;;;;;;22.90;62.60;22.90;99740.00;;;;340999;28;92214;-90
2022/07/16 00:40:39;;;;;;;;;;;22.90;62.10;22.90;99750.00;;;;339022;28;95617;-90
2022/07/16 00:40:51;;;;;;;;;;;22.90;62.00;22.80;99747.00;;;;338424;28;91241;-90
2022/07/16 00:41:03;;;;;;;;;;;22.80;61.70;22.70;99738.00;;;;339055;28;94917;-90
2022/07/16 00:41:18;;;;;;;;;;;22.80;61.50;22.80;99738.00;;;;337668;28;91970;-90
2022/07/16 00:41:30;;;;;;;;;;;22.80;61.70;22.80;99732.00;;;;339695;28;95601;-90
2022/07/16 00:41:42;;;;;;;;;;;22.80;61.80;22.80;99733.00;;;;338602;28;91156;-90
2022/07/16 00:41:54;;;;;;;;;;;22.80;61.80;22.80;99742.00;;;;339986;28;95928;-90
2022/07/16 00:42:07;;;;;;;;;;;22.80;62.30;22.80;99740.00;;;;340280;28;92007;-91
2022/07/16 00:42:19;;;;;;;;;;;22.80;61.80;22.80;99738.00;;;;339135;28;96233;-90
2022/07/16 00:42:30;;;;;;;;;;;22.80;61.80;22.80;99745.00;;;;340163;28;92831;-90
2022/07/16 00:42:43;;;;;;;;;;;22.80;61.90;22.80;99738.00;;;;337791;28;96848;-90
2022/07/16 00:42:54;;;;;;;;;;;22.80;61.90;22.80;99740.00;;;;338703;28;92208;-90
2022/07/16 00:43:43;;;;;;;;;;;22.80;62.00;22.80;99744.00;;;;338433;28;94693;-90
2022/07/16 00:44:02;;;;;;;;;;;22.80;62.00;22.80;99729.00;;;;334918;29;92021;-91
2022/07/16 00:44:16;;;;;;;;;;;22.80;61.90;22.80;99740.00;;;;338342;28;96098;-90
2022/07/16 00:44:27;;;;;;;;;;;22.80;62.00;22.80;99731.00;;;;338854;28;91277;-90
2022/07/16 00:44:40;;;;;;;;;;;22.70;61.90;22.80;99735.00;;;;337575;28;95781;-90
2022/07/16 00:44:52;;;;;;;;;;;22.80;62.00;22.80;99736.00;;;;342636;28;92099;-90
2022/07/16 00:45:04;;;;;;;;;;;22.70;61.90;22.80;99739.00;;;;339043;28;95807;-90
2022/07/16 00:45:16;;;;;;;;;;;22.80;62.60;22.80;99740.00;;;;337484;28;93003;-91
2022/07/16 00:45:28;;;;;;;;;;;22.80;61.90;22.80;99741.00;;;;339101;28;96799;-90
2022/07/16 00:45:40;;;;;;;;;;;22.80;62.10;22.80;99735.00;;;;339012;28;91878;-90
2022/07/16 00:45:51;;;;;;;;;;;22.80;62.00;22.80;99736.00;;;;339011;28;94522;-90
2022/07/16 00:46:03;;;;;;;;;;;22.70;61.70;22.80;99739.00;;;;337444;28;91239;-90
2022/07/16 00:46:17;;;;;;;;;;;22.80;61.60;22.80;99737.00;;;;338771;28;94853;-91
2022/07/16 00:46:29;;;;;;;;;;;22.70;61.70;22.70;99736.00;;;;338847;28;92054;-90
2022/07/16 00:46:41;;;;;;;;;;;22.70;61.50;22.80;99736.00;;;;337714;28;95995;-90
2022/07/16 00:46:53;;;;;;;;;;;22.80;61.60;22.70;99739.00;;;;338824;28;92085;-91
2022/07/16 00:47:05;;;;;;;;;;;22.80;61.70;22.70;99732.00;;;;337600;28;95754;-90
2022/07/16 00:47:17;;;;;;;;;;;22.70;61.60;22.70;99737.00;;;;340271;28;92146;-90
2022/07/16 00:47:29;;;;;;;;;;;22.80;61.80;22.80;99728.00;;;;339060;28;96591;-91
2022/07/16 00:47:41;;;;;;;;;;;22.70;61.70;22.70;99730.00;;;;340300;28;91863;-90
2022/07/16 00:47:53;;;;;;;;;;;22.70;61.60;22.80;99724.00;;;;340339;28;95767;-90
2022/07/16 00:48:05;;;;;;;;;;;22.70;61.40;22.70;99730.00;;;;334955;29;92144;-90
2022/07/16 00:48:17;;;;;;;;;;;22.70;61.40;22.70;99736.00;;;;337790;28;94600;-90
2022/07/16 00:48:29;;;;;;;;;;;22.70;61.60;22.70;99733.00;;;;340092;28;92009;-90
2022/07/16 00:48:41;;;;;;;;;;;22.70;61.80;22.80;99738.00;;;;339874;28;93724;-90
2022/07/16 00:48:54;;;;;;;;;;;22.70;61.90;22.70;99737.00;;;;340269;28;91964;-90
2022/07/16 00:49:06;;;;;;;;;;;22.70;61.60;22.80;99731.00;;;;339084;28;94249;-90
2022/07/16 00:49:19;;;;;;;;;;;22.70;61.60;22.80;99728.00;;;;337510;28;92862;-90
2022/07/16 00:49:31;;;;;;;;;;;22.70;61.40;22.70;99735.00;;;;337684;28;96501;-90
2022/07/16 00:49:42;;;;;;;;;;;22.70;61.30;22.70;99736.00;;;;339601;28;92259;-90
2022/07/16 00:49:54;;;;;;;;;;;22.70;61.30;22.70;99739.00;;;;338066;28;95917;-90
2022/07/16 00:50:06;;;;;;;;;;;22.70;61.40;22.70;99737.00;;;;337212;28;91205;-90
2022/07/16 00:50:18;;;;;;;;;;;22.70;61.60;22.70;99738.00;;;;338902;28;93845;-90
2022/07/16 00:50:31;;;;;;;;;;;22.70;61.50;22.60;99728.00;;;;337511;28;92131;-90
2022/07/16 00:50:42;;;;;;;;;;;22.70;61.30;22.70;99730.00;;;;341563;28;95128;-90
2022/07/16 00:50:54;;;;;;;;;;;22.70;61.40;22.70;99732.00;;;;338615;28;92136;-90
2022/07/16 00:51:06;;;;;;;;;;;22.70;61.30;22.70;99737.00;;;;337438;28;94807;-90
2022/07/16 00:51:18;;;;;;;;;;;22.70;61.60;22.70;99728.00;;;;337514;28;92124;-91
2022/07/16 00:51:30;;;;;;;;;;;22.70;61.60;22.70;99730.00;;;;339024;28;96578;-90
2022/07/16 00:51:44;;;;;;;;;;;22.70;61.60;22.70;99725.00;;;;340116;28;92115;-90
2022/07/16 00:51:58;;;;;;;;;;;22.70;61.30;22.60;99738.00;;;;341265;28;77356;-91
2022/07/16 00:52:09;;;;;;;;;;;22.70;61.30;22.70;99736.00;;;;338931;28;92506;-90
2022/07/16 00:52:22;;;;;;;;;;;22.70;61.70;22.70;99734.00;;;;338195;28;95712;-91
2022/07/16 00:52:35;;;;;;;;;;;22.70;61.90;22.60;99731.00;;;;337347;28;92095;-91
2022/07/16 00:52:47;;;;;;;;;;;22.70;61.70;22.70;99736.00;;;;338423;28;94795;-91
2022/07/16 00:52:59;;;;;;;;;;;22.70;61.40;22.70;99730.00;;;;340050;28;92093;-91
2022/07/16 00:53:11;;;;;;;;;;;22.70;61.70;22.60;99732.00;;;;340393;28;94690;-91
2022/07/16 00:53:23;;;;;;;;;;;22.70;61.70;22.70;99734.00;;;;338740;28;92868;-90
2022/07/16 00:53:35;;;;;;;;;;;22.60;61.30;22.70;99730.00;;;;337081;28;95682;-91
2022/07/16 00:53:47;;;;;;;;;;;22.70;61.40;22.70;99736.00;;;;338395;28;91323;-91
2022/07/16 00:53:59;;;;;;;;;;;22.60;61.40;22.70;99738.00;;;;339110;28;94799;-91
2022/07/16 00:54:11;;;;;;;;;;;22.70;61.70;22.70;99738.00;;;;340163;28;91173;-90
2022/07/16 00:54:23;;;;;;;;;;;22.70;61.50;22.70;99725.00;;;;343159;28;94782;-90
2022/07/16 00:54:35;;;;;;;;;;;22.60;61.20;22.60;99725.00;;;;341172;28;91811;-90
2022/07/16 00:54:47;;;;;;;;;;;22.60;61.10;22.60;99730.00;;;;340180;28;94657;-90
2022/07/16 00:54:58;;;;;;;;;;;22.60;61.30;22.60;99727.00;;;;341368;28;95288;-90
2022/07/16 00:55:10;;;;;;;;;;;22.60;61.30;22.60;99733.00;;;;341473;28;94569;-90
2022/07/16 00:55:22;;;;;;;;;;;22.60;61.10;22.50;99740.00;;;;337360;28;92123;-90
2022/07/16 00:55:34;;;;;;;;;;;22.60;61.00;22.60;99731.00;;;;337715;28;95373;-90
2022/07/16 00:55:46;;;;;;;;;;;22.60;61.00;22.50;99733.00;;;;338778;28;91166;-90
2022/07/16 00:55:58;;;;;;;;;;;22.60;61.20;22.50;99731.00;;;;339962;28;94862;-90
2022/07/16 00:56:11;;;;;;;;;;;22.50;61.10;22.40;99731.00;;;;338648;28;92094;-90
2022/07/16 00:56:23;;;;;;;;;;;22.50;60.90;22.40;99734.00;;;;336911;28;94043;-91
2022/07/16 00:56:35;;;;;;;;;;;22.50;61.00;22.40;99736.00;;;;337409;28;91205;-90
2022/07/16 00:56:46;;;;;;;;;;;22.50;61.20;22.50;99747.00;;;;340342;28;96047;-90
2022/07/16 00:56:58;;;;;;;;;;;22.50;61.20;22.40;99738.00;;;;338894;28;92005;-91
2022/07/16 00:57:10;;;;;;;;;;;22.50;61.20;22.50;99729.00;;;;339013;28;94863;-90
2022/07/16 00:57:22;;;;;;;;;;;22.50;61.20;22.40;99734.00;;;;341383;28;92931;-90
2022/07/16 00:57:34;;;;;;;;;;;22.50;61.20;22.40;99740.00;;;;340314;28;96790;-91
2022/07/16 00:57:46;;;;;;;;;;;22.50;61.20;22.40;99725.00;;;;338698;28;92010;-90
2022/07/16 00:57:58;;;;;;;;;;;22.50;61.20;22.50;99736.00;;;;339957;28;94925;-89
2022/07/16 00:58:09;;;;;;;;;;;22.50;61.20;22.40;99725.00;;;;340198;28;92207;-91
2022/07/16 00:58:21;;;;;;;;;;;22.40;61.10;22.40;99733.00;;;;338099;28;95135;-90
2022/07/16 00:58:33;;;;;;;;;;;22.40;61.10;22.50;99735.00;;;;338145;28;91243;-90
2022/07/16 00:58:45;;;;;;;;;;;22.50;61.20;22.40;99736.00;;;;338954;28;94726;-90
2022/07/16 00:58:57;;;;;;;;;;;22.50;61.20;22.40;99736.00;;;;340140;28;92067;-90
2022/07/16 00:59:11;;;;;;;;;;;22.50;61.20;22.40;99736.00;;;;340301;28;95817;-91
2022/07/16 00:59:24;;;;;;;;;;;22.40;61.40;22.40;99746.00;;;;338099;28;93080;-90
2022/07/16 00:59:35;;;;;;;;;;;22.40;61.20;22.40;99734.00;;;;337650;28;97100;-91
2022/07/16 00:59:47;;;;;;;;;;;22.40;61.20;22.50;99734.00;;;;338440;28;92306;-91
2022/07/16 00:59:59;;;;;;;;;;;22.40;61.20;22.50;99740.00;;;;337085;28;94804;-91
2022/07/16 01:00:11;;;;;;;;;;;22.40;61.20;22.50;99734.00;;;;340313;28;92083;-90
2022/07/16 01:00:23;;;;;;;;;;;22.50;61.40;22.50;99736.00;;;;340442;28;95801;-90
2022/07/16 01:00:35;;;;;;;;;;;22.40;61.50;22.50;99740.00;;;;337373;28;92086;-91
2022/07/16 01:00:47;;;;;;;;;;;22.40;61.40;22.50;99741.00;;;;340441;28;95798;-90
2022/07/16 01:01:01;;;;;;;;;;;22.40;61.40;22.50;99740.00;;;;338669;28;91303;-91
2022/07/16 01:01:13;;;;;;;;;;;22.40;61.50;22.50;99734.00;;;;339693;28;94608;-91
2022/07/16 01:01:25;;;;;;;;;;;22.40;61.30;22.50;99740.00;;;;339957;28;92167;-91
2022/07/16 01:01:37;;;;;;;;;;;22.50;61.90;22.50;99742.00;;;;339107;28;96652;-91
2022/07/16 01:01:48;;;;;;;;;;;22.40;61.40;22.50;99737.00;;;;340134;28;91164;-91
2022/07/16 01:02:00;;;;;;;;;;;22.50;61.70;22.50;99739.00;;;;337730;28;94868;-91
2022/07/16 01:02:12;;;;;;;;;;;22.50;61.90;22.50;99732.00;;;;337565;28;91263;-91
2022/07/16 01:02:24;;;;;;;;;;;22.40;61.60;22.60;99735.00;;;;339237;28;94677;-91
2022/07/16 01:02:36;;;;;;;;;;;22.40;61.50;22.50;99729.00;;;;335935;28;93045;-90
2022/07/16 01:02:48;;;;;;;;;;;22.40;61.60;22.60;99745.00;;;;337996;28;95729;-90
2022/07/16 01:03:00;;;;;;;;;;;22.50;61.50;22.50;99740.00;;;;338050;28;92057;-90